Time;durP1;ratioP1;P1;durP2;ratioP2;P2;SDS_P1;SDS_P2;PMS_P1;PMS_P2;Temp;Humidity;BMP_temperature;BMP_pressure;BME280_temperature;BME280_humidity;BME280_pressure;Samples;Min_cycle;Max_cycle;Signal;HPM_P1;HPM_P2
2021/03/16 00:00:37;;;;;;;67.50;16.43;;;;;;;3.92;75.35;100668.44;2088798;28;20029;-75
2021/03/16 00:01:38;;;;;;;37.13;9.47;;;;;;;3.89;75.78;100674.44;2086666;28;20029;-75
2021/03/16 00:02:38;;;;;;;19.70;5.07;;;;;;;3.87;76.14;100677.88;2085586;28;20025;-76
2021/03/16 00:03:39;;;;;;;45.20;13.00;;;;;;;3.87;76.19;100677.88;2089103;28;20051;-76
2021/03/16 00:04:39;;;;;;;118.07;27.55;;;;;;;3.87;75.96;100680.44;2087416;28;20036;-76
2021/03/16 00:05:39;;;;;;;20.70;6.60;;;;;;;3.81;76.32;100680.41;2090021;28;20025;-80
2021/03/16 00:06:40;;;;;;;16.83;5.47;;;;;;;3.77;76.59;100676.94;2080974;28;20025;-79
2021/03/16 00:07:40;;;;;;;61.70;15.37;;;;;;;3.73;76.76;100672.63;2078940;28;20501;-78
2021/03/16 00:08:40;;;;;;;19.23;5.80;;;;;;;3.70;77.27;100683.78;2081708;28;20037;-77
2021/03/16 00:09:41;;;;;;;51.17;14.30;;;;;;;3.70;77.16;100682.94;2081719;28;20025;-77
2021/03/16 00:10:41;;;;;;;20.40;6.00;;;;;;;3.66;76.87;100689.78;2087532;28;20085;-77
2021/03/16 00:11:41;;;;;;;64.33;18.27;;;;;;;3.56;77.19;100690.59;2089922;28;20645;-77
2021/03/16 00:12:41;;;;;;;30.43;9.67;;;;;;;3.49;77.94;100691.38;2089871;28;20078;-77
2021/03/16 00:13:42;;;;;;;43.53;12.20;;;;;;;3.47;78.15;100678.47;2089956;28;20100;-76
2021/03/16 00:14:42;;;;;;;13.67;4.23;;;;;;;3.53;78.02;100682.81;2079744;28;20031;-75
2021/03/16 00:15:42;;;;;;;32.97;10.37;;;;;;;3.58;78.30;100694.00;2072618;28;20049;-74
2021/03/16 00:16:43;;;;;;;94.70;25.83;;;;;;;3.56;78.17;100698.31;2080961;28;20533;-73
2021/03/16 00:17:43;;;;;;;20.90;6.80;;;;;;;3.53;78.37;100686.25;2086299;28;20060;-77
2021/03/16 00:18:44;;;;;;;31.50;10.33;;;;;;;3.50;77.83;100695.69;2079631;28;20023;-76
2021/03/16 00:19:45;;;;;;;15.13;3.60;;;;;;;3.49;77.15;100687.09;2079626;28;20561;-78
2021/03/16 00:20:46;;;;;;;73.68;23.17;;;;;;;3.49;76.83;100696.53;2085319;28;20029;-77
2021/03/16 00:21:46;;;;;;;18.37;6.50;;;;;;;3.40;76.98;100687.88;2085672;28;20100;-76
2021/03/16 00:22:46;;;;;;;6.63;2.43;;;;;;;3.48;76.54;100695.69;2088349;28;20024;-78
2021/03/16 00:23:47;;;;;;;124.13;38.83;;;;;;;3.35;76.88;100693.84;2079110;28;20108;-77
2021/03/16 00:24:48;;;;;;;22.08;6.80;;;;;;;3.30;77.43;100695.53;2080341;28;20017;-76
2021/03/16 00:25:48;;;;;;;57.10;19.77;;;;;;;3.25;77.17;100701.50;2088283;28;20094;-78
2021/03/16 00:26:48;;;;;;;36.30;12.70;;;;;;;3.35;76.86;100701.59;2089648;28;20044;-77
2021/03/16 00:27:48;;;;;;;13.50;4.43;;;;;;;3.23;77.15;100699.78;2087150;28;20035;-76
2021/03/16 00:28:49;;;;;;;14.30;4.47;;;;;;;3.35;77.11;100699.88;2088539;28;20455;-75
2021/03/16 00:29:49;;;;;;;11.73;3.43;;;;;;;3.34;77.21;100695.56;2089382;28;20368;-74
2021/03/16 00:30:49;;;;;;;8.63;2.80;;;;;;;3.31;77.66;100700.69;2084506;28;20439;-74
2021/03/16 00:31:50;;;;;;;8.27;2.60;;;;;;;3.26;78.21;100704.97;2084902;28;20028;-74
2021/03/16 00:32:50;;;;;;;12.07;3.57;;;;;;;3.26;77.89;100699.81;2084848;28;20487;-74
2021/03/16 00:33:50;;;;;;;9.23;2.63;;;;;;;3.23;78.85;100705.78;2084963;28;20029;-74
2021/03/16 00:34:50;;;;;;;5.83;2.30;;;;;;;3.15;79.25;100707.44;2085949;28;20044;-74
2021/03/16 00:35:51;;;;;;;10.20;2.77;;;;;;;3.08;79.80;100705.66;2084032;28;20037;-74
2021/03/16 00:36:51;;;;;;;9.53;2.60;;;;;;;3.06;80.11;100710.81;2083962;28;20036;-74
2021/03/16 00:37:51;;;;;;;36.63;13.97;;;;;;;3.01;80.38;100709.03;2083778;28;20028;-74
2021/03/16 00:38:52;;;;;;;44.93;16.47;;;;;;;2.94;80.74;100714.13;2086929;28;20021;-74
2021/03/16 00:39:52;;;;;;;10.50;3.33;;;;;;;3.00;80.81;100718.47;2079925;28;20087;-74
2021/03/16 00:40:53;;;;;;;7.88;2.75;;;;;;;2.87;81.15;100711.50;2076938;28;20431;-74
2021/03/16 00:41:53;;;;;;;23.57;8.23;;;;;;;2.82;81.59;100702.84;2071780;28;20040;-74
2021/03/16 00:42:53;;;;;;;33.43;11.37;;;;;;;2.87;81.30;100701.19;2076822;28;20032;-74
2021/03/16 00:43:54;;;;;;;9.17;3.03;;;;;;;2.94;80.87;100697.81;2085761;28;20040;-74
2021/03/16 00:44:54;;;;;;;41.20;14.03;;;;;;;2.96;80.83;100696.97;2086371;28;20479;-74
2021/03/16 00:45:54;;;;;;;18.23;6.50;;;;;;;3.03;80.87;100700.47;2079679;28;20108;-75
2021/03/16 00:46:55;;;;;;;37.13;13.47;;;;;;;3.01;81.22;100704.75;2067436;28;20030;-75
2021/03/16 00:47:55;;;;;;;32.60;11.30;;;;;;;3.07;81.12;100699.66;2072557;28;20022;-75
2021/03/16 00:48:55;;;;;;;18.83;6.30;;;;;;;3.07;80.92;100699.66;2077003;28;20471;-75
2021/03/16 00:49:56;;;;;;;12.80;3.70;;;;;;;3.04;81.22;100709.06;2087884;28;20039;-75
2021/03/16 00:50:56;;;;;;;6.27;2.10;;;;;;;3.03;81.23;100708.19;2085822;28;20502;-75
2021/03/16 00:51:58;;;;;;;10.17;2.63;;;;;;;3.01;81.40;100704.75;2081273;28;20029;-75
2021/03/16 00:52:58;;;;;;;15.10;4.97;;;;;;;3.03;81.63;100713.34;2086745;28;20021;-75
2021/03/16 00:53:59;;;;;;;15.83;6.17;;;;;;;2.94;82.04;100713.28;2089479;28;20033;-75
2021/03/16 00:54:59;;;;;;;9.40;2.63;;;;;;;2.88;82.37;100714.06;2085876;28;20044;-74
2021/03/16 00:55:59;;;;;;;6.40;2.07;;;;;;;2.89;82.20;100717.53;2081343;28;20104;-74
2021/03/16 00:56:59;;;;;;;10.23;2.70;;;;;;;2.84;82.26;100719.19;2084044;28;20025;-77
2021/03/16 00:58:00;;;;;;;9.77;2.93;;;;;;;2.89;81.92;100720.09;2089581;28;20033;-76
2021/03/16 00:59:00;;;;;;;9.50;3.93;;;;;;;2.88;81.52;100720.94;2080313;28;20028;-76
2021/03/16 01:00:00;;;;;;;9.60;2.60;;;;;;;2.96;81.25;100715.00;2071886;28;20642;-77
2021/03/16 01:01:01;;;;;;;7.00;2.30;;;;;;;3.04;80.99;100719.34;2065886;28;20181;-77
2021/03/16 01:02:01;;;;;;;9.57;3.40;;;;;;;3.08;80.84;100718.53;2068831;28;20057;-78
2021/03/16 01:03:02;;;;;;;7.97;2.77;;;;;;;3.16;80.72;100721.19;2075443;28;20061;-76
2021/03/16 01:04:02;;;;;;;8.15;2.38;;;;;;;3.24;80.44;100715.25;2087511;28;20033;-76
2021/03/16 01:05:03;;;;;;;6.87;2.70;;;;;;;3.27;80.12;100720.44;2083175;28;20033;-76
2021/03/16 01:06:04;;;;;;;10.80;2.45;;;;;;;3.35;79.99;100723.06;2081170;28;20112;-76
2021/03/16 01:07:05;;;;;;;12.85;5.50;;;;;;;3.36;79.47;100721.34;2072907;28;20273;-80
2021/03/16 01:08:05;;;;;;;6.47;2.63;;;;;;;3.33;79.51;100722.19;2064761;28;20026;-77
2021/03/16 01:09:05;;;;;;;8.80;2.70;;;;;;;3.37;79.32;100723.97;2078231;28;20037;-77
2021/03/16 01:10:12;;;;;;;5.73;2.70;;;;;;;3.43;79.25;100724.00;2082132;28;20033;-79
2021/03/16 01:11:12;;;;;;;12.93;4.32;;;;;;;3.51;78.69;100721.47;2089462;28;20115;-76
2021/03/16 01:12:12;;;;;;;10.53;4.60;;;;;;;3.53;78.77;100718.91;2089471;28;20487;-76
2021/03/16 01:13:13;;;;;;;9.30;2.80;;;;;;;3.50;79.60;100724.03;2089532;28;20094;-79
2021/03/16 01:14:13;;;;;;;5.20;2.03;;;;;;;3.50;78.97;100724.91;2089536;28;20044;-75
2021/03/16 01:15:16;;;;;;;8.00;1.87;;;;;;;3.56;78.97;100724.94;2089333;28;20479;-75
2021/03/16 01:16:17;;;;;;;6.22;2.63;;;;;;;3.56;79.39;100726.66;2089479;28;20037;-75
2021/03/16 01:17:17;;;;;;;9.03;3.67;;;;;;;3.61;78.81;100732.69;2080403;28;20080;-75
2021/03/16 01:18:21;;;;;;;6.63;2.13;;;;;;;3.54;78.91;100733.53;2080787;28;20104;-76
2021/03/16 01:19:22;;;;;;;10.40;2.10;;;;;;;3.61;78.89;100732.69;2080268;28;20037;-76
2021/03/16 01:20:30;;;;;;;9.33;2.40;;;;;;;3.56;79.15;100737.81;2080018;28;20030;-78
2021/03/16 01:21:32;;;;;;;6.13;2.33;;;;;;;3.54;79.28;100733.53;2081465;28;20033;-74
2021/03/16 01:22:37;;;;;;;12.00;4.65;;;;;;;3.51;79.39;100738.63;2080282;28;20493;-76
2021/03/16 01:23:40;;;;;;;7.97;2.60;;;;;;;3.51;79.28;100733.47;2072678;28;20030;-76
2021/03/16 01:24:41;;;;;;;9.63;2.72;;;;;;;3.52;79.42;100735.22;2072842;28;20088;-75
2021/03/16 01:25:46;;;;;;;8.07;2.30;;;;;;;3.51;79.74;100733.47;2072262;28;20229;-75
2021/03/16 01:26:52;;;;;;;6.97;2.28;;;;;;;3.52;79.60;100738.66;2080615;28;20025;-78
2021/03/16 01:27:58;;;;;;;8.10;2.90;;;;;;;3.52;79.37;100737.78;2084834;28;20021;-77
2021/03/16 01:29:01;;;;;;;5.85;2.28;;;;;;;3.55;79.15;100740.41;2073145;28;20113;-77
2021/03/16 01:30:10;;;;;;;6.82;2.22;;;;;;;3.55;79.30;100740.41;2071293;28;20029;-77
2021/03/16 01:31:24;;;;;;;9.27;3.88;;;;;;;3.60;78.98;100745.59;2083017;28;20478;-76
2021/03/16 01:32:31;;;;;;;5.27;2.20;;;;;;;3.55;79.27;100735.25;2083870;28;20025;-75
2021/03/16 01:33:37;;;;;;;8.88;2.55;;;;;;;3.55;79.42;100736.09;2084450;28;20115;-75
2021/03/16 01:34:40;;;;;;;7.75;2.45;;;;;;;3.54;78.64;100743.81;2072297;28;20017;-75
2021/03/16 01:35:40;;;;;;;5.63;2.10;;;;;;;3.57;78.72;100741.28;2077865;28;20108;-74
2021/03/16 01:36:46;;;;;;;8.47;2.63;;;;;;;3.58;78.69;100738.69;2080253;28;20052;-75
2021/03/16 01:38:27;;;;;;;5.25;2.15;;;;;;;3.56;78.87;100739.56;2063368;28;20150;-80
2021/03/16 01:40:01;;;;;;;5.63;2.30;;;;;;;3.54;78.90;100736.09;2058475;28;20025;-80
2021/03/16 01:41:24;;;;;;;9.10;3.38;;;;;;;3.54;78.54;100742.09;2066896;28;20496;-75
2021/03/16 01:42:29;;;;;;;8.75;2.67;;;;;;;3.58;77.90;100733.56;2082330;28;20037;-75
2021/03/16 01:43:32;;;;;;;12.77;2.50;;;;;;;3.56;78.39;100736.97;2070888;28;20030;-76
2021/03/16 01:44:43;;;;;;;7.65;2.13;;;;;;;3.56;78.35;100745.56;2064194;28;20026;-76
2021/03/16 01:45:46;;;;;;;5.72;2.15;;;;;;;3.54;78.59;100743.81;2072168;28;20490;-75
2021/03/16 01:46:46;;;;;;;9.05;2.50;;;;;;;3.56;78.75;100737.81;2080195;28;20030;-76
2021/03/16 01:47:50;;;;;;;9.70;2.27;;;;;;;3.56;78.58;100735.25;2073771;28;20022;-75
2021/03/16 01:48:51;;;;;;;7.45;2.10;;;;;;;3.58;78.58;100742.97;2072558;28;20122;-76
2021/03/16 01:49:56;;;;;;;6.53;2.38;;;;;;;3.52;79.05;100742.94;2082947;28;20550;-75
2021/03/16 01:50:57;;;;;;;13.82;5.63;;;;;;;3.48;79.23;100738.63;2088576;28;20336;-75
2021/03/16 01:51:58;;;;;;;6.82;2.60;;;;;;;3.46;79.57;100732.59;2089186;28;20379;-75
2021/03/16 01:53:00;;;;;;;8.98;3.00;;;;;;;3.42;79.82;100739.44;2089153;28;20025;-77
2021/03/16 01:54:04;;;;;;;7.40;2.67;;;;;;;3.40;80.00;100736.00;2071877;28;20026;-76
2021/03/16 01:55:05;;;;;;;9.55;2.95;;;;;;;3.40;80.03;100734.25;2063983;28;20374;-76
2021/03/16 01:56:07;;;;;;;8.73;3.15;;;;;;;3.38;80.54;100733.38;2064232;28;20397;-76
2021/03/16 01:57:10;;;;;;;12.02;3.13;;;;;;;3.42;80.27;100724.84;2079082;28;20033;-75
2021/03/16 01:58:10;;;;;;;10.77;3.40;;;;;;;3.40;80.31;100738.56;2077366;28;20018;-76
2021/03/16 01:59:17;;;;;;;8.50;2.97;;;;;;;3.40;80.14;100729.09;2078107;28;20040;-74
2021/03/16 02:00:18;;;;;;;9.60;3.25;;;;;;;3.41;80.31;100736.00;2080757;28;20029;-74
2021/03/16 02:01:18;;;;;;;7.00;2.92;;;;;;;3.40;80.07;100734.25;2072154;28;20034;-74
2021/03/16 02:02:18;;;;;;;11.20;2.85;;;;;;;3.41;80.40;100732.56;2072593;28;20033;-75
2021/03/16 02:03:30;;;;;;;7.47;2.80;;;;;;;3.41;80.25;100733.41;2087222;28;20098;-75
2021/03/16 02:04:30;;;;;;;9.82;2.70;;;;;;;3.37;80.24;100729.09;2076745;28;20026;-74
2021/03/16 02:05:31;;;;;;;6.63;2.80;;;;;;;3.43;80.15;100734.28;2068726;28;20542;-73
2021/03/16 02:06:41;;;;;;;6.43;2.70;;;;;;;3.39;80.23;100727.38;2080753;28;20064;-75
2021/03/16 02:07:51;;;;;;;8.10;2.83;;;;;;;3.36;80.10;100727.38;2089039;28;20036;-75
2021/03/16 02:09:11;;;;;;;4.70;2.55;;;;;;;3.43;80.02;100729.16;2080358;28;20406;-75
2021/03/16 02:10:30;;;;;;;7.55;2.92;;;;;;;3.45;80.22;100733.44;2076709;28;20033;-75
2021/03/16 02:11:40;;;;;;;11.93;3.15;;;;;;;3.41;79.94;100730.00;2089194;28;20025;-75
2021/03/16 02:12:47;;;;;;;6.82;2.88;;;;;;;3.43;80.13;100729.16;2082000;28;20087;-75
2021/03/16 02:14:18;;;;;;;9.07;2.80;;;;;;;3.43;79.59;100726.56;2074394;28;20031;-76
2021/03/16 02:15:40;;;;;;;11.05;3.10;;;;;;;3.45;79.49;100730.88;2074296;28;20021;-76
2021/03/16 02:16:49;;;;;;;7.57;3.13;;;;;;;3.45;79.32;100730.88;2080461;28;20102;-75
2021/03/16 02:18:01;;;;;;;9.43;3.17;;;;;;;3.41;79.27;100730.84;2083986;28;20056;-79
2021/03/16 02:19:22;;;;;;;7.68;2.47;;;;;;;3.45;79.03;100734.28;2082829;28;20382;-79
2021/03/16 02:20:54;;;;;;;9.90;2.37;;;;;;;3.53;78.44;100734.38;2082480;28;20074;-79
2021/03/16 02:21:54;;;;;;;9.73;2.58;;;;;;;3.54;78.89;100736.94;2073868;28;20319;-79
2021/03/16 02:22:56;;;;;;;8.13;2.87;;;;;;;3.51;78.57;100738.63;2078247;28;20561;-79
2021/03/16 02:24:05;;;;;;;8.90;2.60;;;;;;;3.60;78.29;100737.84;2090176;28;20028;-80
2021/03/16 02:25:27;;;;;;;7.47;2.40;;;;;;;3.66;77.52;100736.19;2089988;28;20028;-80
2021/03/16 02:26:37;;;;;;;;;;;;;;;3.59;78.13;100742.13;2074821;28;20022;-79
2021/03/16 02:28:23;;;;;;;7.18;2.55;;;;;;;3.58;77.95;100738.69;2067999;28;20419;-79
2021/03/16 02:29:32;;;;;;;10.15;2.13;;;;;;;3.69;76.57;100746.50;2064426;28;20034;-79
2021/03/16 02:30:34;;;;;;;6.88;2.35;;;;;;;3.74;76.54;100744.84;2074411;28;20033;-78
2021/03/16 02:31:38;;;;;;;7.45;2.10;;;;;;;3.70;76.14;100747.38;2074241;28;20228;-77
2021/03/16 02:32:41;;;;;;;9.38;2.72;;;;;;;3.67;76.44;100748.22;2082882;28;20025;-79
2021/03/16 02:33:43;;;;;;;8.07;2.20;;;;;;;3.66;76.52;100751.66;2090167;28;20021;-79
2021/03/16 02:34:52;;;;;;;4.22;1.90;;;;;;;3.72;76.93;100749.09;2084874;28;20064;-77
2021/03/16 02:35:54;;;;;;;9.02;2.15;;;;;;;3.73;77.26;100755.13;2090117;28;20025;-76
2021/03/16 02:37:01;;;;;;;9.40;2.03;;;;;;;3.72;77.72;100754.25;2090836;28;20541;-76
2021/03/16 02:38:08;;;;;;;5.82;2.17;;;;;;;3.69;77.72;100759.38;2081878;28;20051;-76
2021/03/16 02:39:16;;;;;;;6.45;2.13;;;;;;;3.78;77.93;100762.88;2074206;28;20034;-76
2021/03/16 02:40:21;;;;;;;7.43;2.28;;;;;;;3.72;77.67;100771.47;2069998;28;20048;-75
2021/03/16 02:41:31;;;;;;;9.30;2.67;;;;;;;3.71;78.13;100773.16;2082755;28;20033;-76
2021/03/16 02:42:34;;;;;;;6.88;2.30;;;;;;;3.69;78.99;100777.44;2073333;28;20500;-77
2021/03/16 02:43:36;;;;;;;8.27;2.35;;;;;;;3.66;78.89;100777.44;2074541;28;20081;-76
2021/03/16 02:44:39;;;;;;;7.03;2.45;;;;;;;3.68;78.45;100777.44;2086880;28;20481;-76
2021/03/16 02:45:40;;;;;;;5.95;2.10;;;;;;;3.65;78.52;100783.44;2081799;28;20025;-75
2021/03/16 02:46:46;;;;;;;8.82;2.55;;;;;;;3.66;78.68;100787.75;2081789;28;20522;-75
2021/03/16 02:47:48;;;;;;;8.02;2.75;;;;;;;3.70;77.96;100784.31;2081626;28;20017;-76
2021/03/16 02:48:49;;;;;;;9.90;2.65;;;;;;;3.74;77.17;100782.63;2081782;28;20292;-78
2021/03/16 02:49:51;;;;;;;;;;;;;;;3.79;76.66;100790.38;2090820;28;20108;-79
2021/03/16 02:50:52;;;;;;;12.93;1.98;;;;;;;3.79;76.35;100785.22;2090588;28;19912;-81
2021/03/16 02:51:56;;;;;;;5.93;2.13;;;;;;;3.73;77.22;100778.31;2081679;28;20483;-81
2021/03/16 02:52:57;;;;;;;9.73;2.35;;;;;;;3.80;77.12;100792.13;2074054;28;20076;-81
2021/03/16 02:53:58;;;;;;;7.40;2.20;;;;;;;3.74;77.48;100790.34;2076914;28;20106;-79
2021/03/16 02:54:58;;;;;;;8.02;2.22;;;;;;;3.72;77.56;100787.78;2073447;28;20034;-79
2021/03/16 02:56:00;;;;;;;8.13;2.15;;;;;;;3.70;78.35;100794.63;2073743;28;20389;-81
2021/03/16 02:57:15;;;;;;;8.88;2.20;;;;;;;3.71;79.01;100801.53;2087999;28;20616;-80
2021/03/16 02:58:17;;;;;;;9.98;2.55;;;;;;;3.69;78.80;100807.53;2090646;28;20032;-80
2021/03/16 02:59:18;;;;;;;9.73;2.10;;;;;;;3.69;78.84;100803.22;2090490;28;20035;-78
2021/03/16 03:00:22;;;;;;;7.95;2.17;;;;;;;3.81;78.23;100802.47;2080632;28;20025;-81
2021/03/16 03:01:39;;;;;;;11.10;2.10;;;;;;;3.69;78.84;100804.94;2065743;28;20023;-81
2021/03/16 03:02:51;;;;;;;10.10;2.13;;;;;;;3.62;79.52;100805.75;2077641;28;20025;-80
2021/03/16 03:03:53;;;;;;;12.63;1.95;;;;;;;3.55;80.15;100799.69;2080818;28;20025;-81
2021/03/16 03:04:54;;;;;;;8.40;2.17;;;;;;;3.47;80.92;100806.50;2074353;28;20025;-81
2021/03/16 03:05:55;;;;;;;13.70;2.63;;;;;;;3.47;80.43;100806.50;2089738;28;20025;-79
2021/03/16 03:06:59;;;;;;;6.60;1.88;;;;;;;3.37;81.17;100801.25;2089934;28;20475;-78
2021/03/16 03:07:59;;;;;;;8.68;1.98;;;;;;;3.31;81.43;100805.47;2072924;28;20419;-79
2021/03/16 03:09:02;;;;;;;9.03;2.00;;;;;;;3.26;81.71;100800.28;2073722;28;20057;-79
2021/03/16 03:11:56;;;;;;;8.52;2.33;;;;;;;3.14;82.82;100805.31;2047933;29;20094;-81
2021/03/16 03:12:57;;;;;;;8.27;2.17;;;;;;;3.18;81.34;100801.94;2055944;28;20023;-80
2021/03/16 03:14:02;;;;;;;9.60;2.43;;;;;;;3.19;81.52;100808.78;2090413;28;20021;-81
2021/03/16 03:15:06;;;;;;;10.95;2.30;;;;;;;3.17;81.77;100807.94;2090339;28;20036;-81
2021/03/16 03:16:07;;;;;;;7.47;2.35;;;;;;;3.16;82.28;100808.78;2090323;28;20052;-81
2021/03/16 03:17:22;;;;;;;8.95;2.20;;;;;;;3.18;82.25;100804.50;2090280;28;20029;-83
2021/03/16 03:18:22;;;;;;;7.78;2.10;;;;;;;3.16;82.61;100807.03;2081600;28;20112;-81
2021/03/16 03:19:23;;;;;;;6.60;2.20;;;;;;;3.14;82.66;100808.72;2081578;28;20060;-81
2021/03/16 03:20:23;;;;;;;12.57;2.83;;;;;;;3.15;83.00;100810.47;2090049;28;20021;-81
2021/03/16 03:21:30;;;;;;;12.57;2.38;;;;;;;3.17;82.56;100807.94;2090251;28;20552;-81
2021/03/16 03:22:38;;;;;;;7.95;1.83;;;;;;;3.16;82.45;100819.94;2081401;28;20029;-81
2021/03/16 03:23:46;;;;;;;10.10;2.38;;;;;;;3.21;82.06;100814.81;2081579;28;20061;-81
2021/03/16 03:24:51;;;;;;;10.80;2.30;;;;;;;3.20;81.68;100813.97;2090276;28;20128;-81
2021/03/16 03:26:03;;;;;;;7.88;1.80;;;;;;;3.18;82.16;100813.09;2082807;28;20388;-81
2021/03/16 03:27:06;;;;;;;10.70;2.42;;;;;;;3.21;81.51;100809.66;2073225;28;20084;-81
2021/03/16 03:28:17;;;;;;;7.63;2.10;;;;;;;3.32;80.90;100810.63;2073539;28;20104;-80
2021/03/16 03:29:19;;;;;;;7.53;1.92;;;;;;;3.27;80.58;100813.16;2082115;28;20053;-80
2021/03/16 03:30:23;;;;;;;11.80;2.15;;;;;;;3.31;80.94;100816.63;2072816;28;20416;-79
2021/03/16 03:31:28;;;;;;;8.43;2.03;;;;;;;3.27;80.99;100814.91;2065411;28;20049;-79
2021/03/16 03:32:32;;;;;;;8.90;1.98;;;;;;;3.29;80.79;100813.19;2081002;23;20038;-57
2021/03/16 03:33:35;;;;;;;8.77;1.77;;;;;;;3.30;79.92;100816.63;2086224;28;20044;-57
2021/03/16 03:34:38;;;;;;;5.47;1.73;;;;;;;3.31;80.17;100816.63;2092626;28;20024;-57
2021/03/16 03:35:39;;;;;;;8.60;2.00;;;;;;;3.30;80.17;100822.63;2094498;28;20032;-57
2021/03/16 03:36:42;;;;;;;10.95;2.00;;;;;;;3.31;80.23;100818.38;2097777;28;20430;-57
2021/03/16 03:37:45;;;;;;;6.32;1.90;;;;;;;3.30;80.59;100825.22;2097915;28;20032;-57
2021/03/16 03:38:46;;;;;;;7.00;1.73;;;;;;;3.26;80.56;100829.47;2095951;28;20067;-57
2021/03/16 03:39:47;;;;;;;10.27;2.17;;;;;;;3.26;80.65;100818.31;2097113;28;20020;-57
2021/03/16 03:40:50;;;;;;;8.70;1.70;;;;;;;3.30;80.48;100826.94;2086757;28;20029;-57
2021/03/16 03:41:52;;;;;;;10.40;2.35;;;;;;;3.28;80.70;100826.94;2081442;28;20115;-58
2021/03/16 03:42:56;;;;;;;7.97;2.03;;;;;;;3.29;80.91;100817.47;2081235;28;20612;-58
2021/03/16 03:43:57;;;;;;;10.35;1.80;;;;;;;3.27;80.45;100822.63;2072476;28;20018;-58
2021/03/16 03:45:01;;;;;;;9.65;2.88;;;;;;;3.27;80.58;100820.06;2072456;28;20021;-57
2021/03/16 03:46:02;;;;;;;7.32;1.88;;;;;;;3.27;80.24;100822.63;2081392;28;20037;-57
2021/03/16 03:47:03;;;;;;;7.72;2.05;;;;;;;3.25;80.48;100830.31;2072191;28;20037;-58
2021/03/16 03:48:05;;;;;;;;;;;;;;;3.25;80.19;100830.31;2072921;28;20061;-57
2021/03/16 03:49:07;;;;;;;6.38;1.60;;;;;;;3.26;79.69;100832.06;2088456;28;20292;-57
2021/03/16 03:50:09;;;;;;;11.73;2.30;;;;;;;3.26;80.17;100828.63;2088939;28;20059;-57
2021/03/16 03:51:10;;;;;;;6.18;1.60;;;;;;;3.33;79.54;100835.56;2089247;28;20039;-58
2021/03/16 03:52:13;;;;;;;8.10;1.63;;;;;;;3.31;79.43;100832.09;2089581;28;20115;-57
2021/03/16 03:53:14;;;;;;;6.03;1.70;;;;;;;3.31;79.57;100832.09;2089429;28;20094;-57
2021/03/16 03:54:16;;;;;;;7.43;2.05;;;;;;;3.30;79.60;100835.53;2089437;28;20029;-57
2021/03/16 03:55:18;;;;;;;9.55;2.08;;;;;;;3.35;78.98;100836.44;2089144;28;20631;-57
2021/03/16 03:56:19;;;;;;;9.80;1.80;;;;;;;3.31;79.14;100838.97;2089119;28;20075;-58
2021/03/16 03:57:21;;;;;;;;;;;;;;;3.30;79.82;100829.50;2089316;28;20054;-57
2021/03/16 03:58:23;;;;;;;10.13;1.85;;;;;;;3.31;79.21;100838.97;2089120;28;19915;-58
2021/03/16 03:59:24;;;;;;;10.07;1.98;;;;;;;3.34;79.99;100838.97;2089397;28;20607;-57
2021/03/16 04:00:26;;;;;;;9.23;1.80;;;;;;;3.31;79.89;100837.25;2089002;28;20053;-58
2021/03/16 04:01:29;;;;;;;5.60;1.65;;;;;;;3.31;79.79;100836.41;2080687;28;20108;-58
2021/03/16 04:02:30;;;;;;;8.57;1.80;;;;;;;3.27;79.72;100838.94;2080785;28;20184;-58
2021/03/16 04:03:30;;;;;;;5.78;1.90;;;;;;;3.28;79.74;100837.25;2089454;28;20036;-57
2021/03/16 04:04:31;;;;;;;11.23;1.93;;;;;;;3.29;79.51;100843.25;2089306;28;20473;-57
2021/03/16 04:05:32;;;;;;;10.60;2.07;;;;;;;3.30;79.57;100835.53;2089498;28;20027;-57
2021/03/16 04:06:32;;;;;;;7.20;2.75;;;;;;;3.36;79.41;100845.03;2089282;28;20025;-58
2021/03/16 04:07:35;;;;;;;9.50;2.10;;;;;;;3.33;79.12;100839.88;2089014;28;20388;-58
2021/03/16 04:08:37;;;;;;;4.55;1.50;;;;;;;3.33;80.03;100840.72;2082030;28;20033;-58
2021/03/16 04:09:38;;;;;;;10.43;2.47;;;;;;;3.38;79.76;100849.34;2081166;28;20032;-57
2021/03/16 04:10:38;;;;;;;9.13;2.10;;;;;;;3.37;79.90;100841.59;2080615;28;20013;-57
2021/03/16 04:11:39;;;;;;;11.07;3.08;;;;;;;3.34;79.96;100850.16;2081289;28;20021;-58
2021/03/16 04:12:40;;;;;;;9.98;2.15;;;;;;;3.37;78.96;100847.63;2081201;28;20048;-57
2021/03/16 04:13:40;;;;;;;8.87;1.90;;;;;;;3.38;78.65;100851.91;2081284;28;20025;-58
2021/03/16 04:14:41;;;;;;;13.53;2.20;;;;;;;3.38;78.81;100853.63;2085246;28;20473;-57
2021/03/16 04:15:41;;;;;;;10.77;2.37;;;;;;;3.42;78.19;100851.09;2089478;28;20429;-57
2021/03/16 04:16:42;;;;;;;8.27;1.93;;;;;;;3.45;78.26;100854.56;2089255;28;20074;-58
2021/03/16 04:17:44;;;;;;;10.82;2.17;;;;;;;3.39;78.34;100853.63;2089076;28;20101;-57
2021/03/16 04:18:46;;;;;;;7.18;2.20;;;;;;;3.40;78.09;100852.81;2089046;28;20058;-58
2021/03/16 04:19:46;;;;;;;;;;;;;;;3.46;78.94;100861.44;2089360;28;20021;-58
2021/03/16 04:20:47;;;;;;;6.60;1.67;;;;;;;3.41;79.08;100857.09;2088957;28;19908;-58
2021/03/16 04:21:48;;;;;;;10.80;1.88;;;;;;;3.40;79.01;100857.94;2089172;28;20023;-57
2021/03/16 04:22:49;;;;;;;;;;;;;;;3.35;79.75;100854.47;2089500;28;20028;-58
2021/03/16 04:23:50;;;;;;;5.55;1.60;;;;;;;3.39;80.02;100858.78;2089085;28;19912;-57
2021/03/16 04:24:53;;;;;;;10.38;2.22;;;;;;;3.36;80.35;100863.94;2088741;28;20044;-58
2021/03/16 04:25:54;;;;;;;6.60;1.80;;;;;;;3.35;80.21;100869.06;2089280;28;20028;-57
2021/03/16 04:26:54;;;;;;;8.87;2.20;;;;;;;3.32;80.67;100872.47;2089127;28;20366;-57
2021/03/16 04:27:54;;;;;;;7.90;1.80;;;;;;;3.32;80.85;100872.47;2089159;28;20016;-57
2021/03/16 04:28:54;;;;;;;7.60;2.47;;;;;;;3.32;80.63;100867.31;2089145;28;20423;-58
2021/03/16 04:29:55;;;;;;;11.03;2.10;;;;;;;3.31;80.81;100867.31;2088881;28;20049;-57
2021/03/16 04:30:55;;;;;;;11.30;2.40;;;;;;;3.30;80.94;100868.16;2088981;28;20055;-57
2021/03/16 04:31:56;;;;;;;6.03;2.07;;;;;;;3.26;81.24;100873.28;2089024;28;20455;-58
2021/03/16 04:32:57;;;;;;;12.83;2.63;;;;;;;3.30;80.89;100871.59;2088711;28;20110;-58
2021/03/16 04:33:57;;;;;;;10.10;2.40;;;;;;;3.35;81.08;100874.22;2089223;28;20025;-58
2021/03/16 04:34:57;;;;;;;13.30;2.00;;;;;;;3.37;81.09;100872.53;2088455;28;20029;-58
2021/03/16 04:35:58;;;;;;;7.20;2.10;;;;;;;3.34;81.53;100881.09;2089174;28;20025;-58
2021/03/16 04:36:58;;;;;;;8.40;2.25;;;;;;;3.28;81.79;100881.03;2089127;28;20485;-58
2021/03/16 04:37:59;;;;;;;8.43;2.30;;;;;;;3.27;82.12;100893.03;2089034;28;20028;-58
2021/03/16 04:38:59;;;;;;;7.67;2.37;;;;;;;3.26;82.58;100885.31;2080994;28;20469;-58
2021/03/16 04:39:59;;;;;;;9.10;2.43;;;;;;;3.23;83.10;100893.84;2080494;28;20029;-58
2021/03/16 04:41:00;;;;;;;7.93;1.90;;;;;;;3.16;83.38;100889.47;2080671;28;20528;-58
2021/03/16 04:42:00;;;;;;;10.93;2.87;;;;;;;3.18;83.88;100889.50;2080783;28;20040;-57
2021/03/16 04:43:00;;;;;;;8.90;2.23;;;;;;;3.17;84.13;100885.19;2081132;28;20422;-58
2021/03/16 04:44:01;;;;;;;10.47;2.33;;;;;;;3.15;84.49;100886.88;2080800;28;20035;-58
2021/03/16 04:45:01;;;;;;;9.93;2.30;;;;;;;3.13;84.73;100892.03;2086335;28;20120;-57
2021/03/16 04:46:01;;;;;;;8.63;2.17;;;;;;;3.13;85.03;100886.00;2089121;28;20521;-57
2021/03/16 04:47:02;;;;;;;11.80;2.73;;;;;;;3.13;85.49;100888.56;2089230;28;20473;-58
2021/03/16 04:48:03;;;;;;;6.10;2.38;;;;;;;3.07;85.76;100889.38;2088857;28;20025;-58
2021/03/16 04:49:03;;;;;;;6.05;2.15;;;;;;;3.09;85.47;100892.84;2089362;28;20044;-57
2021/03/16 04:50:04;;;;;;;9.23;3.10;;;;;;;3.02;85.74;100886.75;2088809;28;20104;-58
2021/03/16 04:51:05;;;;;;;12.50;2.88;;;;;;;3.02;86.51;100891.03;2089136;28;20032;-57
2021/03/16 04:52:06;;;;;;;9.05;2.65;;;;;;;3.01;86.75;100890.16;2080208;28;20029;-58
2021/03/16 04:53:06;;;;;;;9.03;2.63;;;;;;;2.98;86.83;100890.16;2080408;28;20060;-58
2021/03/16 04:54:06;;;;;;;9.70;2.53;;;;;;;2.99;87.00;100896.16;2089015;28;20025;-58
2021/03/16 04:55:07;;;;;;;8.30;2.20;;;;;;;2.96;85.97;100892.69;2079915;28;20676;-57
2021/03/16 04:56:08;;;;;;;10.57;2.33;;;;;;;2.99;86.03;100894.41;2080106;28;20029;-58
2021/03/16 04:57:08;;;;;;;12.20;2.40;;;;;;;2.97;85.83;100898.72;2088927;28;20036;-57
2021/03/16 04:58:08;;;;;;;10.47;2.30;;;;;;;2.98;86.36;100894.41;2088908;28;20043;-57
2021/03/16 04:59:09;;;;;;;8.87;2.30;;;;;;;2.97;86.29;100898.72;2089328;28;20025;-58